DAL2378 KJFK-LTBA
Flight info
| Callsign | DAL2378 |
|---|---|
| Flight time | N/A |
| Altitude | 29000 |
| Route | MERIT DCT HFD DCT MHT DCT BGR DCT DANOL DCT NEEKO/M082F320 DCT 54N050W 55N040W 55N030W 54N020W DCT MALOT DCT GISTI/N0477F330 DCT BAKUR DCT KONAN/N0470F350 UL607 KOK DCT RITAX DCT PITES DCT KRH DCT KUNOD DCT IRBIR DCT UMVEG DCT VEKEN DCT IRDIV DCT KRV DCT NISVA DCT ADORU UN739 ATVEP |
| Aircraft | B763/H-SDE3FGHIM3RWXY/LB1 |
Departure
| Time | 2026-04-30 05:55 |
|---|---|
| Airport | John F. Kennedy International Airport (KJFK) |
Arrival
| Time | N/A |
|---|---|
| Airport | İstanbul Atatürk Airport (LTBA) |
| Time | Latitude | Longitude | Altitude | Speed | Heading |
|---|---|---|---|---|---|
| 2026-04-30 05:53 | 40.65634 | -73.78714 | 19 ft | 0 kts | 121° |
| 2026-04-30 05:54 | 40.65611 | -73.78658 | 20 ft | 32 kts | 120° |
| 2026-04-30 05:55 | 40.65371 | -73.78116 | 20 ft | 103 kts | 119° |
| 2026-04-30 05:55 | 40.64895 | -73.77064 | 25 ft | 163 kts | 118° |
| 2026-04-30 05:55 | 40.64229 | -73.75647 | 336 ft | 195 kts | 122° |
| 2026-04-30 05:55 | 40.63446 | -73.74056 | 806 ft | 222 kts | 123° |
| 2026-04-30 05:56 | 40.62556 | -73.72266 | 1184 ft | 242 kts | 124° |
| 2026-04-30 05:56 | 40.61569 | -73.70418 | 1634 ft | 249 kts | 137° |
| 2026-04-30 05:56 | 40.60133 | -73.69217 | 2104 ft | 243 kts | 154° |
| 2026-04-30 05:56 | 40.58837 | -73.67835 | 2509 ft | 245 kts | 123° |
| 2026-04-30 05:57 | 40.58428 | -73.65640 | 3001 ft | 260 kts | 89° |
| 2026-04-30 05:57 | 40.59093 | -73.63373 | 3439 ft | 277 kts | 53° |
| 2026-04-30 05:57 | 40.60593 | -73.61771 | 3955 ft | 287 kts | 33° |
| 2026-04-30 05:57 | 40.62337 | -73.60432 | 4436 ft | 291 kts | 31° |
| 2026-04-30 05:58 | 40.64089 | -73.59090 | 4989 ft | 292 kts | 31° |
| 2026-04-30 05:58 | 40.65846 | -73.57702 | 5522 ft | 296 kts | 32° |
| 2026-04-30 05:58 | 40.67627 | -73.56273 | 6078 ft | 302 kts | 32° |
| 2026-04-30 05:58 | 40.69435 | -73.54807 | 6631 ft | 307 kts | 32° |
| 2026-04-30 05:59 | 40.71266 | -73.53311 | 7167 ft | 311 kts | 32° |
| 2026-04-30 05:59 | 40.73117 | -73.51781 | 7717 ft | 314 kts | 32° |
| 2026-04-30 05:59 | 40.74973 | -73.50233 | 8274 ft | 317 kts | 32° |
| 2026-04-30 05:59 | 40.76812 | -73.48683 | 8829 ft | 318 kts | 32° |
| 2026-04-30 06:00 | 40.78674 | -73.47097 | 9416 ft | 319 kts | 32° |
| 2026-04-30 06:00 | 40.80518 | -73.45539 | 9948 ft | 313 kts | 32° |
| 2026-04-30 06:00 | 40.82379 | -73.44002 | 10448 ft | 316 kts | 32° |
| 2026-04-30 06:00 | 40.84253 | -73.42455 | 10981 ft | 320 kts | 32° |
| 2026-04-30 06:01 | 40.86144 | -73.40886 | 11483 ft | 323 kts | 32° |
| 2026-04-30 06:01 | 40.88052 | -73.39293 | 12007 ft | 326 kts | 32° |
| 2026-04-30 06:01 | 40.89976 | -73.37681 | 12556 ft | 328 kts | 32° |
| 2026-04-30 06:01 | 40.91903 | -73.36055 | 13096 ft | 331 kts | 32° |
| 2026-04-30 06:02 | 40.93849 | -73.34403 | 13645 ft | 332 kts | 32° |
| 2026-04-30 06:02 | 40.95794 | -73.32739 | 14146 ft | 333 kts | 32° |
| 2026-04-30 06:02 | 40.97084 | -73.31628 | 14472 ft | 334 kts | 32° |
| 2026-04-30 06:02 | 40.99029 | -73.29937 | 14967 ft | 335 kts | 31° |
| 2026-04-30 06:03 | 41.00960 | -73.28207 | 15484 ft | 335 kts | 34° |
| 2026-04-30 06:03 | 41.02796 | -73.26287 | 15993 ft | 336 kts | 38° |
| 2026-04-30 06:03 | 41.04570 | -73.24272 | 16536 ft | 336 kts | 39° |
| 2026-04-30 06:03 | 41.06346 | -73.22248 | 16992 ft | 338 kts | 38° |
| 2026-04-30 06:04 | 41.08147 | -73.20226 | 17447 ft | 340 kts | 38° |
| 2026-04-30 06:04 | 41.09962 | -73.18221 | 17934 ft | 340 kts | 37° |
| 2026-04-30 06:04 | 41.11798 | -73.16220 | 18394 ft | 341 kts | 37° |
| 2026-04-30 06:05 | 41.15496 | -73.12239 | 19225 ft | 343 kts | 37° |
| 2026-04-30 06:05 | 41.17352 | -73.10253 | 19652 ft | 343 kts | 37° |
| 2026-04-30 06:05 | 41.19184 | -73.08297 | 20072 ft | 342 kts | 37° |
| 2026-04-30 06:05 | 41.21040 | -73.06315 | 20507 ft | 342 kts | 37° |
| 2026-04-30 06:06 | 41.22890 | -73.04340 | 20951 ft | 340 kts | 37° |
| 2026-04-30 06:06 | 41.24733 | -73.02372 | 21340 ft | 342 kts | 37° |
| 2026-04-30 06:06 | 41.26632 | -73.00346 | 21332 ft | 357 kts | 37° |
| 2026-04-30 06:06 | 41.28599 | -72.98246 | 21412 ft | 369 kts | 37° |
| 2026-04-30 06:07 | 41.30626 | -72.96079 | 21601 ft | 377 kts | 37° |
| 2026-04-30 06:07 | 41.32674 | -72.93887 | 21995 ft | 378 kts | 37° |
| 2026-04-30 06:07 | 41.34730 | -72.91685 | 22334 ft | 382 kts | 38° |
| 2026-04-30 06:07 | 41.36809 | -72.89455 | 22689 ft | 385 kts | 38° |
| 2026-04-30 06:08 | 41.38900 | -72.87209 | 23055 ft | 387 kts | 38° |
| 2026-04-30 06:08 | 41.41006 | -72.84945 | 23414 ft | 389 kts | 38° |
| 2026-04-30 06:08 | 41.43119 | -72.82672 | 23717 ft | 392 kts | 38° |
| 2026-04-30 06:08 | 41.45241 | -72.80389 | 24021 ft | 394 kts | 38° |
| 2026-04-30 06:09 | 41.47379 | -72.78086 | 24329 ft | 395 kts | 38° |
| 2026-04-30 06:09 | 41.49497 | -72.75802 | 24630 ft | 397 kts | 38° |
| 2026-04-30 06:09 | 41.51649 | -72.73480 | 24930 ft | 399 kts | 38° |
| 2026-04-30 06:09 | 41.53810 | -72.71147 | 25246 ft | 400 kts | 38° |
| 2026-04-30 06:10 | 41.55973 | -72.68810 | 25555 ft | 401 kts | 39° |
| 2026-04-30 06:10 | 41.58139 | -72.66467 | 25872 ft | 401 kts | 39° |
| 2026-04-30 06:10 | 41.60311 | -72.64115 | 26200 ft | 402 kts | 39° |
| 2026-04-30 06:10 | 41.62493 | -72.61751 | 26517 ft | 402 kts | 39° |
| 2026-04-30 06:11 | 41.64668 | -72.59392 | 26831 ft | 402 kts | 39° |
| 2026-04-30 06:11 | 41.66840 | -72.57034 | 27166 ft | 402 kts | 39° |
| 2026-04-30 06:11 | 41.69006 | -72.54679 | 27502 ft | 401 kts | 39° |
| 2026-04-30 06:11 | 41.71169 | -72.52327 | 27829 ft | 401 kts | 39° |
| 2026-04-30 06:12 | 41.73333 | -72.49972 | 28179 ft | 399 kts | 39° |
| 2026-04-30 06:12 | 41.75195 | -72.47801 | 28417 ft | 397 kts | 55° |
| 2026-04-30 06:12 | 41.76562 | -72.44594 | 28300 ft | 399 kts | 67° |
| 2026-04-30 06:12 | 41.77939 | -72.41350 | 28339 ft | 407 kts | 50° |
| 2026-04-30 06:13 | 41.80125 | -72.38916 | 28253 ft | 413 kts | 26° |
| 2026-04-30 06:13 | 41.82767 | -72.37420 | 28469 ft | 412 kts | 18° |
| 2026-04-30 06:13 | 41.85307 | -72.36295 | 28489 ft | 417 kts | 16° |
| 2026-04-30 06:14 | 41.90887 | -72.33975 | 28596 ft | 426 kts | 18° |
| 2026-04-30 06:14 | 41.96438 | -72.30935 | 28681 ft | 435 kts | 24° |
| 2026-04-30 06:14 | 41.99074 | -72.28885 | 28598 ft | 442 kts | 37° |
| 2026-04-30 06:15 | 42.01492 | -72.26341 | 28772 ft | 442 kts | 40° |
| 2026-04-30 06:15 | 42.06111 | -72.20829 | 28843 ft | 448 kts | 54° |
| 2026-04-30 06:15 | 42.07943 | -72.17508 | 28992 ft | 447 kts | 51° |
| 2026-04-30 06:16 | 42.10189 | -72.14558 | 28886 ft | 453 kts | 37° |
| 2026-04-30 06:16 | 42.12736 | -72.12065 | 28992 ft | 455 kts | 34° |
| 2026-04-30 06:16 | 42.15375 | -72.09627 | 28921 ft | 461 kts | 34° |
| 2026-04-30 06:17 | 42.20525 | -72.04368 | 28918 ft | 468 kts | 40° |
| 2026-04-30 06:17 | 42.25488 | -71.98545 | 28904 ft | 476 kts | 41° |
| 2026-04-30 06:18 | 42.30502 | -71.92643 | 28900 ft | 482 kts | 41° |
| 2026-04-30 06:18 | 42.35633 | -71.86734 | 28903 ft | 487 kts | 40° |
| 2026-04-30 06:19 | 42.40838 | -71.80803 | 28905 ft | 492 kts | 40° |
| 2026-04-30 06:19 | 42.46098 | -71.74809 | 28936 ft | 496 kts | 40° |
| 2026-04-30 06:20 | 42.51400 | -71.68746 | 28924 ft | 500 kts | 40° |
| 2026-04-30 06:20 | 42.56692 | -71.62674 | 28939 ft | 503 kts | 40° |
| 2026-04-30 06:21 | 42.62050 | -71.56511 | 28939 ft | 506 kts | 40° |
| 2026-04-30 06:21 | 42.67432 | -71.50303 | 28912 ft | 509 kts | 40° |
| 2026-04-30 06:22 | 42.72836 | -71.44060 | 28934 ft | 510 kts | 40° |
| 2026-04-30 06:22 | 42.78252 | -71.37787 | 28918 ft | 512 kts | 40° |
| 2026-04-30 06:23 | 42.83676 | -71.31490 | 28923 ft | 512 kts | 40° |
| 2026-04-30 06:23 | 42.89065 | -71.25218 | 28941 ft | 512 kts | 40° |
| 2026-04-30 06:24 | 42.94484 | -71.18896 | 28931 ft | 513 kts | 40° |
| 2026-04-30 06:24 | 42.99904 | -71.12558 | 28922 ft | 513 kts | 41° |
| 2026-04-30 06:25 | 43.05317 | -71.06212 | 28920 ft | 512 kts | 41° |
| 2026-04-30 06:25 | 43.10724 | -70.99859 | 28904 ft | 512 kts | 41° |
| 2026-04-30 06:26 | 43.16117 | -70.93506 | 28913 ft | 511 kts | 41° |
| 2026-04-30 06:26 | 43.21503 | -70.87145 | 28898 ft | 511 kts | 41° |
| 2026-04-30 06:27 | 43.26879 | -70.80779 | 28913 ft | 510 kts | 41° |
| 2026-04-30 06:27 | 43.32246 | -70.74413 | 28925 ft | 509 kts | 41° |
| 2026-04-30 06:28 | 43.37602 | -70.68044 | 28936 ft | 509 kts | 41° |
| 2026-04-30 06:28 | 43.42923 | -70.61700 | 28922 ft | 509 kts | 41° |
| 2026-04-30 06:29 | 43.48276 | -70.55302 | 28932 ft | 509 kts | 41° |
| 2026-04-30 06:29 | 43.53622 | -70.48896 | 28939 ft | 509 kts | 41° |
| 2026-04-30 06:30 | 43.58957 | -70.42489 | 28937 ft | 508 kts | 41° |
| 2026-04-30 06:30 | 43.64286 | -70.36072 | 28956 ft | 508 kts | 41° |
| 2026-04-30 06:31 | 43.69610 | -70.29648 | 28950 ft | 508 kts | 41° |
| 2026-04-30 06:31 | 43.74934 | -70.23206 | 28941 ft | 507 kts | 41° |
| 2026-04-30 06:32 | 43.80189 | -70.16832 | 28941 ft | 505 kts | 41° |
| 2026-04-30 06:32 | 43.85465 | -70.10417 | 28972 ft | 504 kts | 41° |
| 2026-04-30 06:33 | 43.90732 | -70.03998 | 28972 ft | 503 kts | 41° |
| 2026-04-30 06:33 | 43.95981 | -69.97585 | 28966 ft | 503 kts | 41° |
| 2026-04-30 06:34 | 44.01222 | -69.91167 | 28980 ft | 501 kts | 42° |
| 2026-04-30 06:34 | 44.06449 | -69.84748 | 28964 ft | 501 kts | 42° |
| 2026-04-30 06:35 | 44.11663 | -69.78330 | 28972 ft | 500 kts | 42° |
| 2026-04-30 06:35 | 44.16870 | -69.71906 | 28973 ft | 499 kts | 42° |
| 2026-04-30 06:36 | 44.22030 | -69.65524 | 28962 ft | 499 kts | 42° |
| 2026-04-30 06:36 | 44.27215 | -69.59096 | 28969 ft | 498 kts | 42° |
| 2026-04-30 06:37 | 44.32387 | -69.52667 | 28971 ft | 498 kts | 42° |
| 2026-04-30 06:37 | 44.37560 | -69.46222 | 28965 ft | 497 kts | 42° |
| 2026-04-30 06:38 | 44.42718 | -69.39779 | 28965 ft | 497 kts | 42° |
| 2026-04-30 06:38 | 44.47873 | -69.33323 | 28977 ft | 497 kts | 43° |
| 2026-04-30 06:39 | 44.53027 | -69.26854 | 28979 ft | 497 kts | 43° |
| 2026-04-30 06:39 | 44.58165 | -69.20386 | 28977 ft | 496 kts | 42° |
| 2026-04-30 06:40 | 44.63290 | -69.13921 | 29003 ft | 495 kts | 42° |
| 2026-04-30 06:40 | 44.68406 | -69.07452 | 28999 ft | 495 kts | 43° |
| 2026-04-30 06:41 | 44.73514 | -69.00976 | 29005 ft | 495 kts | 43° |
| 2026-04-30 06:41 | 44.78591 | -68.94521 | 29013 ft | 495 kts | 43° |
| 2026-04-30 06:42 | 44.83662 | -68.88061 | 29470 ft | 485 kts | 43° |
| 2026-04-30 06:42 | 44.86170 | -68.84890 | 29711 ft | 482 kts | 42° |
| 2026-04-30 06:42 | 44.88673 | -68.81793 | 29979 ft | 477 kts | 41° |
| 2026-04-30 06:42 | 44.91174 | -68.78736 | 30237 ft | 473 kts | 41° |
| 2026-04-30 06:43 | 44.93652 | -68.75713 | 30472 ft | 469 kts | 41° |
| 2026-04-30 06:43 | 44.96107 | -68.72712 | 30706 ft | 465 kts | 41° |
| 2026-04-30 06:43 | 44.98544 | -68.69723 | 30937 ft | 461 kts | 41° |
| 2026-04-30 06:43 | 45.00949 | -68.66760 | 31194 ft | 457 kts | 41° |
| 2026-04-30 06:44 | 45.03337 | -68.63811 | 31434 ft | 453 kts | 41° |
| 2026-04-30 06:44 | 45.05694 | -68.60892 | 31676 ft | 449 kts | 41° |
| 2026-04-30 06:44 | 45.08035 | -68.57989 | 31920 ft | 445 kts | 41° |
| 2026-04-30 06:44 | 45.10321 | -68.55151 | 32162 ft | 441 kts | 41° |
| 2026-04-30 06:45 | 45.12616 | -68.52300 | 32406 ft | 437 kts | 40° |
| 2026-04-30 06:45 | 45.14889 | -68.49472 | 32670 ft | 433 kts | 40° |
| 2026-04-30 06:45 | 45.17140 | -68.46669 | 32926 ft | 429 kts | 40° |
| 2026-04-30 06:45 | 45.19373 | -68.43886 | 33066 ft | 428 kts | 40° |
| 2026-04-30 06:46 | 45.21620 | -68.41083 | 32964 ft | 432 kts | 40° |
| 2026-04-30 06:46 | 45.26149 | -68.35425 | 33020 ft | 436 kts | 40° |
| 2026-04-30 06:47 | 45.30718 | -68.29704 | 33027 ft | 440 kts | 40° |
| 2026-04-30 06:47 | 45.35326 | -68.23920 | 33036 ft | 443 kts | 40° |
| 2026-04-30 06:48 | 45.39187 | -68.19062 | 33023 ft | 447 kts | 40° |
| 2026-04-30 06:48 | 45.44628 | -68.12203 | 33030 ft | 450 kts | 40° |
| 2026-04-30 06:49 | 45.49331 | -68.06256 | 33022 ft | 454 kts | 40° |
| 2026-04-30 06:49 | 45.53276 | -68.01259 | 33029 ft | 456 kts | 40° |
| 2026-04-30 06:50 | 45.58029 | -67.95225 | 33035 ft | 459 kts | 40° |
| 2026-04-30 06:50 | 45.62817 | -67.89131 | 33043 ft | 462 kts | 40° |
| 2026-04-30 06:51 | 45.67624 | -67.83000 | 33044 ft | 464 kts | 40° |
| 2026-04-30 06:51 | 45.72378 | -67.76795 | 33020 ft | 467 kts | 42° |
| 2026-04-30 06:52 | 45.76970 | -67.70180 | 33048 ft | 469 kts | 44° |